sensor_id;sensor_type;location;lat;lon;timestamp;temperature;humidity
81800;DHT22;71195;52.528;5.704;2023-07-29T00:00:48;20.20;66.50
81800;DHT22;71195;52.528;5.704;2023-07-29T00:03:17;20.10;66.40
81800;DHT22;71195;52.528;5.704;2023-07-29T00:05:47;20.10;66.50
81800;DHT22;71195;52.528;5.704;2023-07-29T00:08:16;20.00;66.50
81800;DHT22;71195;52.528;5.704;2023-07-29T00:10:46;20.00;66.50
81800;DHT22;71195;52.528;5.704;2023-07-29T00:13:15;20.00;66.50
81800;DHT22;71195;52.528;5.704;2023-07-29T00:15:44;20.00;66.50
81800;DHT22;71195;52.528;5.704;2023-07-29T00:18:16;20.00;66.50
81800;DHT22;71195;52.528;5.704;2023-07-29T00:20:45;19.90;66.60
81800;DHT22;71195;52.528;5.704;2023-07-29T00:23:14;19.90;66.70
81800;DHT22;71195;52.528;5.704;2023-07-29T00:25:45;19.90;66.70
81800;DHT22;71195;52.528;5.704;2023-07-29T00:28:14;19.80;66.70
81800;DHT22;71195;52.528;5.704;2023-07-29T00:30:44;19.80;66.70
81800;DHT22;71195;52.528;5.704;2023-07-29T00:33:16;19.70;66.80
81800;DHT22;71195;52.528;5.704;2023-07-29T00:35:46;19.70;66.80
81800;DHT22;71195;52.528;5.704;2023-07-29T00:38:16;19.70;66.80
81800;DHT22;71195;52.528;5.704;2023-07-29T00:40:45;19.70;66.70
81800;DHT22;71195;52.528;5.704;2023-07-29T00:43:15;19.70;66.80
81800;DHT22;71195;52.528;5.704;2023-07-29T00:45:44;19.70;66.80
81800;DHT22;71195;52.528;5.704;2023-07-29T00:48:17;19.70;66.70
81800;DHT22;71195;52.528;5.704;2023-07-29T00:50:46;19.70;66.80
81800;DHT22;71195;52.528;5.704;2023-07-29T00:53:15;19.70;66.70
81800;DHT22;71195;52.528;5.704;2023-07-29T00:55:45;19.70;66.70
81800;DHT22;71195;52.528;5.704;2023-07-29T00:58:15;19.60;66.70
81800;DHT22;71195;52.528;5.704;2023-07-29T01:00:45;19.60;66.80
81800;DHT22;71195;52.528;5.704;2023-07-29T01:03:17;19.60;66.80
81800;DHT22;71195;52.528;5.704;2023-07-29T01:05:54;19.50;66.80
81800;DHT22;71195;52.528;5.704;2023-07-29T01:08:33;19.50;66.90
81800;DHT22;71195;52.528;5.704;2023-07-29T01:11:14;19.50;66.80
81800;DHT22;71195;52.528;5.704;2023-07-29T01:13:50;19.50;66.80
81800;DHT22;71195;52.528;5.704;2023-07-29T01:16:28;19.40;66.80
81800;DHT22;71195;52.528;5.704;2023-07-29T01:19:05;19.40;66.80
81800;DHT22;71195;52.528;5.704;2023-07-29T01:21:35;19.40;66.70
81800;DHT22;71195;52.528;5.704;2023-07-29T01:24:08;19.40;66.80
81800;DHT22;71195;52.528;5.704;2023-07-29T01:26:38;19.40;66.80
81800;DHT22;71195;52.528;5.704;2023-07-29T01:29:07;19.30;66.80
81800;DHT22;71195;52.528;5.704;2023-07-29T01:31:42;19.30;66.80
81800;DHT22;71195;52.528;5.704;2023-07-29T01:34:17;19.30;66.90
81800;DHT22;71195;52.528;5.704;2023-07-29T01:36:51;19.30;66.90
81800;DHT22;71195;52.528;5.704;2023-07-29T01:39:25;19.30;66.80
81800;DHT22;71195;52.528;5.704;2023-07-29T01:41:55;19.30;66.80
81800;DHT22;71195;52.528;5.704;2023-07-29T01:44:25;19.30;66.80
81800;DHT22;71195;52.528;5.704;2023-07-29T01:46:55;19.20;66.80
81800;DHT22;71195;52.528;5.704;2023-07-29T01:49:25;19.30;66.80
81800;DHT22;71195;52.528;5.704;2023-07-29T01:51:54;19.20;66.80
81800;DHT22;71195;52.528;5.704;2023-07-29T01:54:26;19.20;66.70
81800;DHT22;71195;52.528;5.704;2023-07-29T01:56:55;19.20;66.70
81800;DHT22;71195;52.528;5.704;2023-07-29T01:59:24;19.30;66.70
81800;DHT22;71195;52.528;5.704;2023-07-29T02:01:53;19.30;66.70
81800;DHT22;71195;52.528;5.704;2023-07-29T02:04:22;19.30;66.70
81800;DHT22;71195;52.528;5.704;2023-07-29T02:06:52;19.30;66.70
81800;DHT22;71195;52.528;5.704;2023-07-29T02:09:21;19.30;66.70
81800;DHT22;71195;52.528;5.704;2023-07-29T02:11:54;19.30;66.70
81800;DHT22;71195;52.528;5.704;2023-07-29T02:14:23;19.30;66.70
81800;DHT22;71195;52.528;5.704;2023-07-29T02:16:52;19.30;66.70
81800;DHT22;71195;52.528;5.704;2023-07-29T02:19:22;19.30;66.70
81800;DHT22;71195;52.528;5.704;2023-07-29T02:21:51;19.30;66.70
81800;DHT22;71195;52.528;5.704;2023-07-29T02:24:20;19.30;66.70
81800;DHT22;71195;52.528;5.704;2023-07-29T02:26:49;19.30;66.70
81800;DHT22;71195;52.528;5.704;2023-07-29T02:29:22;19.30;66.70
81800;DHT22;71195;52.528;5.704;2023-07-29T02:31:51;19.30;66.60
81800;DHT22;71195;52.528;5.704;2023-07-29T02:34:20;19.30;66.60
81800;DHT22;71195;52.528;5.704;2023-07-29T02:36:49;19.20;66.60
81800;DHT22;71195;52.528;5.704;2023-07-29T02:39:18;19.20;66.60
81800;DHT22;71195;52.528;5.704;2023-07-29T02:41:48;19.20;66.50
81800;DHT22;71195;52.528;5.704;2023-07-29T02:44:17;19.30;66.50
81800;DHT22;71195;52.528;5.704;2023-07-29T02:46:49;19.20;66.50
81800;DHT22;71195;52.528;5.704;2023-07-29T02:49:20;19.20;66.60
81800;DHT22;71195;52.528;5.704;2023-07-29T02:51:50;19.20;66.60
81800;DHT22;71195;52.528;5.704;2023-07-29T02:54:19;19.20;66.60
81800;DHT22;71195;52.528;5.704;2023-07-29T02:56:50;19.20;66.60
81800;DHT22;71195;52.528;5.704;2023-07-29T02:59:19;19.20;66.60
81800;DHT22;71195;52.528;5.704;2023-07-29T03:01:51;19.20;66.50
81800;DHT22;71195;52.528;5.704;2023-07-29T03:04:21;19.20;66.60
81800;DHT22;71195;52.528;5.704;2023-07-29T03:06:50;19.20;66.50
81800;DHT22;71195;52.528;5.704;2023-07-29T03:09:20;19.20;66.50
81800;DHT22;71195;52.528;5.704;2023-07-29T03:11:49;19.10;66.60
81800;DHT22;71195;52.528;5.704;2023-07-29T03:14:21;19.10;66.60
81800;DHT22;71195;52.528;5.704;2023-07-29T03:16:53;19.10;66.60
81800;DHT22;71195;52.528;5.704;2023-07-29T03:19:22;19.10;66.60
81800;DHT22;71195;52.528;5.704;2023-07-29T03:21:51;19.10;66.60
81800;DHT22;71195;52.528;5.704;2023-07-29T03:24:20;19.10;66.60
81800;DHT22;71195;52.528;5.704;2023-07-29T03:26:50;19.10;66.60
81800;DHT22;71195;52.528;5.704;2023-07-29T03:29:19;19.10;66.70
81800;DHT22;71195;52.528;5.704;2023-07-29T03:31:48;19.00;66.60
81800;DHT22;71195;52.528;5.704;2023-07-29T03:34:20;19.00;66.80
81800;DHT22;71195;52.528;5.704;2023-07-29T03:36:49;19.00;66.80
81800;DHT22;71195;52.528;5.704;2023-07-29T03:39:18;19.00;66.70
81800;DHT22;71195;52.528;5.704;2023-07-29T03:41:48;19.00;66.70
81800;DHT22;71195;52.528;5.704;2023-07-29T03:44:17;19.00;66.70
81800;DHT22;71195;52.528;5.704;2023-07-29T03:46:47;19.00;66.70
81800;DHT22;71195;52.528;5.704;2023-07-29T03:49:19;18.90;66.90
81800;DHT22;71195;52.528;5.704;2023-07-29T03:51:48;18.90;67.00
81800;DHT22;71195;52.528;5.704;2023-07-29T03:54:17;18.80;66.90
81800;DHT22;71195;52.528;5.704;2023-07-29T03:56:46;18.80;66.90
81800;DHT22;71195;52.528;5.704;2023-07-29T03:59:16;18.80;67.00
81800;DHT22;71195;52.528;5.704;2023-07-29T04:01:46;18.80;67.10
81800;DHT22;71195;52.528;5.704;2023-07-29T04:04:15;18.80;67.10
81800;DHT22;71195;52.528;5.704;2023-07-29T04:06:47;18.70;67.20
81800;DHT22;71195;52.528;5.704;2023-07-29T04:09:16;18.70;67.30
81800;DHT22;71195;52.528;5.704;2023-07-29T04:11:45;18.70;67.40
81800;DHT22;71195;52.528;5.704;2023-07-29T04:14:14;18.70;67.40
81800;DHT22;71195;52.528;5.704;2023-07-29T04:16:44;18.70;67.40
81800;DHT22;71195;52.528;5.704;2023-07-29T04:19:15;18.70;67.50
81800;DHT22;71195;52.528;5.704;2023-07-29T04:21:47;18.70;67.60
81800;DHT22;71195;52.528;5.704;2023-07-29T04:24:17;18.70;67.50
81800;DHT22;71195;52.528;5.704;2023-07-29T04:26:47;18.70;67.50
81800;DHT22;71195;52.528;5.704;2023-07-29T04:29:16;18.70;67.60
81800;DHT22;71195;52.528;5.704;2023-07-29T04:31:45;18.70;67.60
81800;DHT22;71195;52.528;5.704;2023-07-29T04:34:15;18.70;67.60
81800;DHT22;71195;52.528;5.704;2023-07-29T04:36:46;18.70;67.60
81800;DHT22;71195;52.528;5.704;2023-07-29T04:39:16;18.70;67.60
81800;DHT22;71195;52.528;5.704;2023-07-29T04:41:45;18.70;67.80
81800;DHT22;71195;52.528;5.704;2023-07-29T04:44:15;18.60;67.80
81800;DHT22;71195;52.528;5.704;2023-07-29T04:46:45;18.60;67.80
81800;DHT22;71195;52.528;5.704;2023-07-29T04:49:14;18.70;67.90
81800;DHT22;71195;52.528;5.704;2023-07-29T04:51:43;18.70;67.90
81800;DHT22;71195;52.528;5.704;2023-07-29T04:54:15;18.70;67.80
81800;DHT22;71195;52.528;5.704;2023-07-29T04:56:46;18.70;67.90
81800;DHT22;71195;52.528;5.704;2023-07-29T04:59:17;18.70;67.80
81800;DHT22;71195;52.528;5.704;2023-07-29T05:01:46;18.70;67.90
81800;DHT22;71195;52.528;5.704;2023-07-29T05:04:16;18.70;67.80
81800;DHT22;71195;52.528;5.704;2023-07-29T05:06:45;18.80;67.90
81800;DHT22;71195;52.528;5.704;2023-07-29T05:09:19;18.80;67.90
81800;DHT22;71195;52.528;5.704;2023-07-29T05:11:48;18.70;68.00
81800;DHT22;71195;52.528;5.704;2023-07-29T05:14:18;18.80;68.00
81800;DHT22;71195;52.528;5.704;2023-07-29T05:16:47;18.80;68.00
81800;DHT22;71195;52.528;5.704;2023-07-29T05:19:16;18.80;68.00
81800;DHT22;71195;52.528;5.704;2023-07-29T05:21:45;18.80;68.00
81800;DHT22;71195;52.528;5.704;2023-07-29T05:24:17;18.80;68.00
81800;DHT22;71195;52.528;5.704;2023-07-29T05:26:47;18.90;68.10
81800;DHT22;71195;52.528;5.704;2023-07-29T05:29:16;18.80;68.00
81800;DHT22;71195;52.528;5.704;2023-07-29T05:31:45;18.80;68.10
81800;DHT22;71195;52.528;5.704;2023-07-29T05:34:14;18.90;68.00
81800;DHT22;71195;52.528;5.704;2023-07-29T05:36:44;18.90;68.00
81800;DHT22;71195;52.528;5.704;2023-07-29T05:39:13;18.90;68.10
81800;DHT22;71195;52.528;5.704;2023-07-29T05:41:45;18.90;68.00
81800;DHT22;71195;52.528;5.704;2023-07-29T05:44:14;19.00;68.10
81800;DHT22;71195;52.528;5.704;2023-07-29T05:46:43;19.00;68.00
81800;DHT22;71195;52.528;5.704;2023-07-29T05:49:13;19.10;68.00
81800;DHT22;71195;52.528;5.704;2023-07-29T05:51:43;19.10;68.00
81800;DHT22;71195;52.528;5.704;2023-07-29T05:54:12;19.10;67.90
81800;DHT22;71195;52.528;5.704;2023-07-29T05:56:41;19.20;68.00
81800;DHT22;71195;52.528;5.704;2023-07-29T05:59:13;19.20;67.90
81800;DHT22;71195;52.528;5.704;2023-07-29T06:01:43;19.30;67.90
81800;DHT22;71195;52.528;5.704;2023-07-29T06:04:14;19.30;67.90
81800;DHT22;71195;52.528;5.704;2023-07-29T06:06:43;19.40;67.90
81800;DHT22;71195;52.528;5.704;2023-07-29T06:09:12;19.40;67.80
81800;DHT22;71195;52.528;5.704;2023-07-29T06:11:41;19.50;67.80
81800;DHT22;71195;52.528;5.704;2023-07-29T06:14:13;19.50;67.70
81800;DHT22;71195;52.528;5.704;2023-07-29T06:16:42;19.60;67.70
81800;DHT22;71195;52.528;5.704;2023-07-29T06:19:12;19.70;67.70
81800;DHT22;71195;52.528;5.704;2023-07-29T06:21:42;19.70;67.70
81800;DHT22;71195;52.528;5.704;2023-07-29T06:24:11;19.70;67.60
81800;DHT22;71195;52.528;5.704;2023-07-29T06:26:40;19.70;67.70
81800;DHT22;71195;52.528;5.704;2023-07-29T06:29:09;19.80;67.70
81800;DHT22;71195;52.528;5.704;2023-07-29T06:31:41;19.90;67.60
81800;DHT22;71195;52.528;5.704;2023-07-29T06:34:10;19.90;67.60
81800;DHT22;71195;52.528;5.704;2023-07-29T06:36:40;19.90;67.60
81800;DHT22;71195;52.528;5.704;2023-07-29T06:39:09;19.90;67.60
81800;DHT22;71195;52.528;5.704;2023-07-29T06:41:38;20.00;67.70
81800;DHT22;71195;52.528;5.704;2023-07-29T06:44:07;20.00;67.60
81800;DHT22;71195;52.528;5.704;2023-07-29T06:46:36;20.00;67.50
81800;DHT22;71195;52.528;5.704;2023-07-29T06:49:08;20.10;67.50
81800;DHT22;71195;52.528;5.704;2023-07-29T06:51:37;20.10;67.50
81800;DHT22;71195;52.528;5.704;2023-07-29T06:54:06;20.30;67.50
81800;DHT22;71195;52.528;5.704;2023-07-29T06:56:36;20.30;67.30
81800;DHT22;71195;52.528;5.704;2023-07-29T06:59:05;20.50;67.30
81800;DHT22;71195;52.528;5.704;2023-07-29T07:01:34;20.50;67.20
81800;DHT22;71195;52.528;5.704;2023-07-29T07:04:03;20.60;67.20
81800;DHT22;71195;52.528;5.704;2023-07-29T07:06:35;20.70;67.10
81800;DHT22;71195;52.528;5.704;2023-07-29T07:09:04;20.80;67.00
81800;DHT22;71195;52.528;5.704;2023-07-29T07:11:34;20.90;67.00
81800;DHT22;71195;52.528;5.704;2023-07-29T07:14:03;21.00;67.00
81800;DHT22;71195;52.528;5.704;2023-07-29T07:16:32;21.10;66.90
81800;DHT22;71195;52.528;5.704;2023-07-29T07:19:03;21.10;66.80
81800;DHT22;71195;52.528;5.704;2023-07-29T07:21:34;21.30;66.70
81800;DHT22;71195;52.528;5.704;2023-07-29T07:24:04;21.40;66.70
81800;DHT22;71195;52.528;5.704;2023-07-29T07:26:33;21.50;66.70
81800;DHT22;71195;52.528;5.704;2023-07-29T07:29:03;21.50;66.70
81800;DHT22;71195;52.528;5.704;2023-07-29T07:31:34;21.70;66.70
81800;DHT22;71195;52.528;5.704;2023-07-29T07:34:03;21.70;66.60
81800;DHT22;71195;52.528;5.704;2023-07-29T07:36:35;21.90;66.50
81800;DHT22;71195;52.528;5.704;2023-07-29T07:39:04;22.00;66.40
81800;DHT22;71195;52.528;5.704;2023-07-29T07:41:33;22.10;66.30
81800;DHT22;71195;52.528;5.704;2023-07-29T07:44:02;22.20;66.20
81800;DHT22;71195;52.528;5.704;2023-07-29T07:46:32;22.30;66.20
81800;DHT22;71195;52.528;5.704;2023-07-29T07:49:01;22.30;66.20
81800;DHT22;71195;52.528;5.704;2023-07-29T07:51:30;22.40;66.10
81800;DHT22;71195;52.528;5.704;2023-07-29T07:54:02;22.40;66.10
81800;DHT22;71195;52.528;5.704;2023-07-29T07:56:31;22.30;66.10
81800;DHT22;71195;52.528;5.704;2023-07-29T07:59:00;22.30;66.10
81800;DHT22;71195;52.528;5.704;2023-07-29T08:01:34;22.20;66.20
81800;DHT22;71195;52.528;5.704;2023-07-29T08:04:04;22.30;66.10
81800;DHT22;71195;52.528;5.704;2023-07-29T08:06:34;22.40;66.00
81800;DHT22;71195;52.528;5.704;2023-07-29T08:09:05;22.50;65.90
81800;DHT22;71195;52.528;5.704;2023-07-29T08:11:34;22.50;65.90
81800;DHT22;71195;52.528;5.704;2023-07-29T08:14:04;22.60;65.70
81800;DHT22;71195;52.528;5.704;2023-07-29T08:16:33;22.70;65.70
81800;DHT22;71195;52.528;5.704;2023-07-29T08:19:02;22.80;65.40
81800;DHT22;71195;52.528;5.704;2023-07-29T08:21:31;22.90;65.30
81800;DHT22;71195;52.528;5.704;2023-07-29T08:24:00;22.90;65.30
81800;DHT22;71195;52.528;5.704;2023-07-29T08:26:32;22.80;65.30
81800;DHT22;71195;52.528;5.704;2023-07-29T08:29:01;22.90;65.20
81800;DHT22;71195;52.528;5.704;2023-07-29T08:31:30;23.00;65.10
81800;DHT22;71195;52.528;5.704;2023-07-29T08:34:00;23.10;65.00
81800;DHT22;71195;52.528;5.704;2023-07-29T08:36:30;23.10;65.00
81800;DHT22;71195;52.528;5.704;2023-07-29T08:38:59;23.20;64.80
81800;DHT22;71195;52.528;5.704;2023-07-29T08:41:39;23.20;64.70
81800;DHT22;71195;52.528;5.704;2023-07-29T08:44:12;23.30;64.70
81800;DHT22;71195;52.528;5.704;2023-07-29T08:46:46;23.40;64.60
81800;DHT22;71195;52.528;5.704;2023-07-29T08:49:16;23.50;64.50
81800;DHT22;71195;52.528;5.704;2023-07-29T08:51:46;23.60;64.40
81800;DHT22;71195;52.528;5.704;2023-07-29T08:54:17;23.70;64.30
81800;DHT22;71195;52.528;5.704;2023-07-29T08:56:49;23.80;64.10
81800;DHT22;71195;52.528;5.704;2023-07-29T08:59:19;23.80;64.00
81800;DHT22;71195;52.528;5.704;2023-07-29T09:01:49;23.70;64.10
81800;DHT22;71195;52.528;5.704;2023-07-29T09:04:21;23.60;64.00
81800;DHT22;71195;52.528;5.704;2023-07-29T09:06:51;23.60;64.10
81800;DHT22;71195;52.528;5.704;2023-07-29T09:09:22;23.60;64.20
81800;DHT22;71195;52.528;5.704;2023-07-29T09:11:54;23.50;64.30
81800;DHT22;71195;52.528;5.704;2023-07-29T09:14:24;23.40;64.30
81800;DHT22;71195;52.528;5.704;2023-07-29T09:16:53;23.40;64.30
81800;DHT22;71195;52.528;5.704;2023-07-29T09:19:25;23.30;64.40
81800;DHT22;71195;52.528;5.704;2023-07-29T09:21:55;23.40;64.30
81800;DHT22;71195;52.528;5.704;2023-07-29T09:24:24;23.60;64.10
81800;DHT22;71195;52.528;5.704;2023-07-29T09:26:58;23.70;64.00
81800;DHT22;71195;52.528;5.704;2023-07-29T09:29:28;23.80;63.90
81800;DHT22;71195;52.528;5.704;2023-07-29T09:32:19;23.80;63.80
81800;DHT22;71195;52.528;5.704;2023-07-29T09:34:49;23.60;63.80
81800;DHT22;71195;52.528;5.704;2023-07-29T09:37:21;23.60;63.90
81800;DHT22;71195;52.528;5.704;2023-07-29T09:39:50;23.50;64.00
81800;DHT22;71195;52.528;5.704;2023-07-29T09:42:23;23.40;64.00
81800;DHT22;71195;52.528;5.704;2023-07-29T09:44:52;23.50;64.10
81800;DHT22;71195;52.528;5.704;2023-07-29T09:47:22;23.60;64.00
81800;DHT22;71195;52.528;5.704;2023-07-29T09:49:52;23.70;63.90
81800;DHT22;71195;52.528;5.704;2023-07-29T09:52:23;23.80;63.70
81800;DHT22;71195;52.528;5.704;2023-07-29T09:54:52;24.00;63.40
81800;DHT22;71195;52.528;5.704;2023-07-29T09:57:24;24.20;63.10
81800;DHT22;71195;52.528;5.704;2023-07-29T09:59:54;24.50;62.80
81800;DHT22;71195;52.528;5.704;2023-07-29T10:02:24;24.50;62.60
81800;DHT22;71195;52.528;5.704;2023-07-29T10:04:55;24.50;62.60
81800;DHT22;71195;52.528;5.704;2023-07-29T10:07:25;24.40;62.60
81800;DHT22;71195;52.528;5.704;2023-07-29T10:09:54;24.40;62.70
81800;DHT22;71195;52.528;5.704;2023-07-29T10:12:29;24.40;62.60
81800;DHT22;71195;52.528;5.704;2023-07-29T10:15:00;24.20;62.60
81800;DHT22;71195;52.528;5.704;2023-07-29T10:17:30;24.20;62.60
81800;DHT22;71195;52.528;5.704;2023-07-29T10:19:59;24.20;62.60
81800;DHT22;71195;52.528;5.704;2023-07-29T10:22:33;24.00;62.60
81800;DHT22;71195;52.528;5.704;2023-07-29T10:25:04;23.90;62.50
81800;DHT22;71195;52.528;5.704;2023-07-29T10:27:43;23.80;62.50
81800;DHT22;71195;52.528;5.704;2023-07-29T10:30:12;23.90;62.30
81800;DHT22;71195;52.528;5.704;2023-07-29T10:32:43;23.90;62.30
81800;DHT22;71195;52.528;5.704;2023-07-29T10:35:13;24.00;62.00
81800;DHT22;71195;52.528;5.704;2023-07-29T10:37:43;24.00;61.90
81800;DHT22;71195;52.528;5.704;2023-07-29T10:40:12;24.20;61.80
81800;DHT22;71195;52.528;5.704;2023-07-29T10:43:00;24.30;61.70
81800;DHT22;71195;52.528;5.704;2023-07-29T10:45:37;24.50;61.30
81800;DHT22;71195;52.528;5.704;2023-07-29T10:48:09;24.70;61.30
81800;DHT22;71195;52.528;5.704;2023-07-29T10:50:39;25.00;61.10
81800;DHT22;71195;52.528;5.704;2023-07-29T10:53:08;25.20;60.70
81800;DHT22;71195;52.528;5.704;2023-07-29T10:55:38;25.30;60.50
81800;DHT22;71195;52.528;5.704;2023-07-29T10:58:13;25.50;60.30
81800;DHT22;71195;52.528;5.704;2023-07-29T11:00:44;25.60;60.00
81800;DHT22;71195;52.528;5.704;2023-07-29T11:03:14;25.70;59.90
81800;DHT22;71195;52.528;5.704;2023-07-29T11:05:45;25.80;59.70
81800;DHT22;71195;52.528;5.704;2023-07-29T11:08:30;26.00;59.50
81800;DHT22;71195;52.528;5.704;2023-07-29T11:11:03;26.10;59.20
81800;DHT22;71195;52.528;5.704;2023-07-29T11:13:36;26.10;59.30
81800;DHT22;71195;52.528;5.704;2023-07-29T11:16:06;26.20;59.10
81800;DHT22;71195;52.528;5.704;2023-07-29T11:18:36;26.40;59.00
81800;DHT22;71195;52.528;5.704;2023-07-29T11:21:05;26.70;58.80
81800;DHT22;71195;52.528;5.704;2023-07-29T11:23:36;26.90;58.60
81800;DHT22;71195;52.528;5.704;2023-07-29T11:26:05;26.90;58.50
81800;DHT22;71195;52.528;5.704;2023-07-29T11:28:40;27.00;58.50
81800;DHT22;71195;52.528;5.704;2023-07-29T11:31:10;26.90;58.50
81800;DHT22;71195;52.528;5.704;2023-07-29T11:33:40;26.80;58.70
81800;DHT22;71195;52.528;5.704;2023-07-29T11:36:19;26.70;58.70
81800;DHT22;71195;52.528;5.704;2023-07-29T11:38:50;26.70;58.60
81800;DHT22;71195;52.528;5.704;2023-07-29T11:41:20;26.70;58.70
81800;DHT22;71195;52.528;5.704;2023-07-29T11:43:53;26.60;58.60
81800;DHT22;71195;52.528;5.704;2023-07-29T11:46:22;26.60;58.60
81800;DHT22;71195;52.528;5.704;2023-07-29T11:48:54;26.40;58.80
81800;DHT22;71195;52.528;5.704;2023-07-29T11:51:23;26.20;59.10
81800;DHT22;71195;52.528;5.704;2023-07-29T11:53:54;26.10;59.20
81800;DHT22;71195;52.528;5.704;2023-07-29T11:56:24;26.00;59.10
81800;DHT22;71195;52.528;5.704;2023-07-29T11:58:56;26.00;59.10
81800;DHT22;71195;52.528;5.704;2023-07-29T12:01:26;25.90;59.00
81800;DHT22;71195;52.528;5.704;2023-07-29T12:03:57;25.90;59.00
81800;DHT22;71195;52.528;5.704;2023-07-29T12:06:26;25.80;59.00
81800;DHT22;71195;52.528;5.704;2023-07-29T12:08:57;25.80;58.90
81800;DHT22;71195;52.528;5.704;2023-07-29T12:11:27;25.80;58.90
81800;DHT22;71195;52.528;5.704;2023-07-29T12:13:59;25.80;58.90
81800;DHT22;71195;52.528;5.704;2023-07-29T12:16:29;25.60;58.90
81800;DHT22;71195;52.528;5.704;2023-07-29T12:19:01;25.60;58.90
81800;DHT22;71195;52.528;5.704;2023-07-29T12:21:30;25.60;58.90
81800;DHT22;71195;52.528;5.704;2023-07-29T12:23:59;25.50;58.80
81800;DHT22;71195;52.528;5.704;2023-07-29T12:26:28;25.60;58.70
81800;DHT22;71195;52.528;5.704;2023-07-29T12:29:13;25.60;58.70
81800;DHT22;71195;52.528;5.704;2023-07-29T12:31:43;25.60;58.60
81800;DHT22;71195;52.528;5.704;2023-07-29T12:34:18;25.50;58.80
81800;DHT22;71195;52.528;5.704;2023-07-29T12:36:49;25.40;58.90
81800;DHT22;71195;52.528;5.704;2023-07-29T12:39:20;25.40;58.90
81800;DHT22;71195;52.528;5.704;2023-07-29T12:41:50;25.30;58.90
81800;DHT22;71195;52.528;5.704;2023-07-29T12:44:23;25.30;59.00
81800;DHT22;71195;52.528;5.704;2023-07-29T12:46:52;25.20;58.90
81800;DHT22;71195;52.528;5.704;2023-07-29T12:49:21;25.10;59.00
81800;DHT22;71195;52.528;5.704;2023-07-29T12:51:51;25.00;59.20
81800;DHT22;71195;52.528;5.704;2023-07-29T12:54:20;25.00;59.20
81800;DHT22;71195;52.528;5.704;2023-07-29T12:56:49;25.10;59.20
81800;DHT22;71195;52.528;5.704;2023-07-29T12:59:19;25.20;59.30
81800;DHT22;71195;52.528;5.704;2023-07-29T13:01:51;25.20;59.40
81800;DHT22;71195;52.528;5.704;2023-07-29T13:04:20;25.20;59.50
81800;DHT22;71195;52.528;5.704;2023-07-29T13:06:49;25.20;59.60
81800;DHT22;71195;52.528;5.704;2023-07-29T13:09:18;25.20;59.60
81800;DHT22;71195;52.528;5.704;2023-07-29T13:11:47;25.30;59.70
81800;DHT22;71195;52.528;5.704;2023-07-29T13:14:16;25.20;59.80
81800;DHT22;71195;52.528;5.704;2023-07-29T13:16:46;25.30;59.80
81800;DHT22;71195;52.528;5.704;2023-07-29T13:19:18;25.30;59.80
81800;DHT22;71195;52.528;5.704;2023-07-29T13:21:47;25.30;60.00
81800;DHT22;71195;52.528;5.704;2023-07-29T13:24:17;25.30;60.00
81800;DHT22;71195;52.528;5.704;2023-07-29T13:26:46;25.40;60.20
81800;DHT22;71195;52.528;5.704;2023-07-29T13:29:15;25.60;60.10
81800;DHT22;71195;52.528;5.704;2023-07-29T13:31:44;25.70;59.90
81800;DHT22;71195;52.528;5.704;2023-07-29T13:34:13;25.80;59.80
81800;DHT22;71195;52.528;5.704;2023-07-29T13:36:45;25.70;59.70
81800;DHT22;71195;52.528;5.704;2023-07-29T13:39:14;25.60;59.80
81800;DHT22;71195;52.528;5.704;2023-07-29T13:41:43;25.60;60.00
81800;DHT22;71195;52.528;5.704;2023-07-29T13:44:13;25.40;60.20
81800;DHT22;71195;52.528;5.704;2023-07-29T13:46:42;25.40;60.20
81800;DHT22;71195;52.528;5.704;2023-07-29T13:49:11;25.40;60.20
81800;DHT22;71195;52.528;5.704;2023-07-29T13:51:40;25.40;60.10
81800;DHT22;71195;52.528;5.704;2023-07-29T13:54:12;25.50;60.00
81800;DHT22;71195;52.528;5.704;2023-07-29T13:56:41;25.60;59.80
81800;DHT22;71195;52.528;5.704;2023-07-29T13:59:10;25.60;59.80
81800;DHT22;71195;52.528;5.704;2023-07-29T14:01:39;25.70;59.60
81800;DHT22;71195;52.528;5.704;2023-07-29T14:04:09;25.70;59.50
81800;DHT22;71195;52.528;5.704;2023-07-29T14:06:38;25.60;59.50
81800;DHT22;71195;52.528;5.704;2023-07-29T14:09:07;25.80;59.30
81800;DHT22;71195;52.528;5.704;2023-07-29T14:11:39;25.90;59.00
81800;DHT22;71195;52.528;5.704;2023-07-29T14:14:09;26.10;58.80
81800;DHT22;71195;52.528;5.704;2023-07-29T14:16:38;26.30;58.70
81800;DHT22;71195;52.528;5.704;2023-07-29T14:19:08;26.40;58.70
81800;DHT22;71195;52.528;5.704;2023-07-29T14:21:37;26.40;58.70
81800;DHT22;71195;52.528;5.704;2023-07-29T14:24:06;26.20;58.70
81800;DHT22;71195;52.528;5.704;2023-07-29T14:26:36;26.20;58.90
81800;DHT22;71195;52.528;5.704;2023-07-29T14:29:10;26.10;59.00
81800;DHT22;71195;52.528;5.704;2023-07-29T14:31:39;26.10;59.00
81800;DHT22;71195;52.528;5.704;2023-07-29T14:34:09;26.00;59.10
81800;DHT22;71195;52.528;5.704;2023-07-29T14:36:38;26.10;59.10
81800;DHT22;71195;52.528;5.704;2023-07-29T14:39:08;26.10;58.80
81800;DHT22;71195;52.528;5.704;2023-07-29T14:41:37;26.20;58.70
81800;DHT22;71195;52.528;5.704;2023-07-29T14:44:13;26.30;58.50
81800;DHT22;71195;52.528;5.704;2023-07-29T14:46:42;26.40;58.30
81800;DHT22;71195;52.528;5.704;2023-07-29T14:49:11;26.40;58.40
81800;DHT22;71195;52.528;5.704;2023-07-29T14:51:40;26.50;58.20
81800;DHT22;71195;52.528;5.704;2023-07-29T14:54:09;26.60;58.00
81800;DHT22;71195;52.528;5.704;2023-07-29T14:56:39;26.80;57.90
81800;DHT22;71195;52.528;5.704;2023-07-29T14:59:14;27.00;57.70
81800;DHT22;71195;52.528;5.704;2023-07-29T15:01:43;27.10;57.50
81800;DHT22;71195;52.528;5.704;2023-07-29T15:04:15;27.10;57.50
81800;DHT22;71195;52.528;5.704;2023-07-29T15:06:48;27.00;57.60
81800;DHT22;71195;52.528;5.704;2023-07-29T15:09:18;27.00;57.60
81800;DHT22;71195;52.528;5.704;2023-07-29T15:11:47;27.00;57.60
81800;DHT22;71195;52.528;5.704;2023-07-29T15:14:19;27.10;57.50
81800;DHT22;71195;52.528;5.704;2023-07-29T15:16:48;27.10;57.50
81800;DHT22;71195;52.528;5.704;2023-07-29T15:19:20;27.10;57.60
81800;DHT22;71195;52.528;5.704;2023-07-29T15:21:52;27.20;57.60
81800;DHT22;71195;52.528;5.704;2023-07-29T15:24:22;27.30;57.40
81800;DHT22;71195;52.528;5.704;2023-07-29T15:26:51;27.40;57.30
81800;DHT22;71195;52.528;5.704;2023-07-29T15:29:23;27.50;57.20
81800;DHT22;71195;52.528;5.704;2023-07-29T15:31:52;27.50;57.00
81800;DHT22;71195;52.528;5.704;2023-07-29T15:34:21;27.70;56.90
81800;DHT22;71195;52.528;5.704;2023-07-29T15:36:51;27.80;56.80
81800;DHT22;71195;52.528;5.704;2023-07-29T15:39:21;27.90;56.60
81800;DHT22;71195;52.528;5.704;2023-07-29T15:41:50;27.90;56.30
81800;DHT22;71195;52.528;5.704;2023-07-29T15:44:19;28.10;56.10
81800;DHT22;71195;52.528;5.704;2023-07-29T15:46:51;28.10;56.00
81800;DHT22;71195;52.528;5.704;2023-07-29T15:49:21;28.10;55.80